createdAt,value
2018-09-18T00:01:51.245Z,99.90
2018-09-18T00:04:20.075Z,99.90
2018-09-18T00:06:48.377Z,99.90
2018-09-18T00:09:16.600Z,99.90
2018-09-18T00:11:51.665Z,99.90
2018-09-18T00:14:26.090Z,99.90
2018-09-18T00:16:54.666Z,99.90
2018-09-18T00:19:31.613Z,99.90
2018-09-18T00:21:59.894Z,99.90
2018-09-18T00:24:28.165Z,99.90
2018-09-18T00:26:56.435Z,99.90
2018-09-18T00:29:24.730Z,99.90
2018-09-18T00:31:53.345Z,99.90
2018-09-18T00:34:22.161Z,99.90
2018-09-18T00:36:50.489Z,99.90
2018-09-18T00:39:19.541Z,99.90
2018-09-18T00:41:47.805Z,99.90
2018-09-18T00:44:16.062Z,99.90
2018-09-18T00:46:44.937Z,99.90
2018-09-18T00:49:13.781Z,99.90
2018-09-18T00:51:42.346Z,99.90
2018-09-18T00:54:11.034Z,99.90
2018-09-18T00:56:40.169Z,99.90
2018-09-18T00:59:08.458Z,99.90
2018-09-18T01:01:36.718Z,99.90
2018-09-18T01:04:05.737Z,99.90
2018-09-18T01:06:34.489Z,99.90
2018-09-18T01:09:03.482Z,99.90
2018-09-18T01:11:31.729Z,99.90
2018-09-18T01:14:00.006Z,99.90
2018-09-18T01:16:28.311Z,99.90
2018-09-18T01:18:56.578Z,99.90
2018-09-18T01:21:24.926Z,99.90
2018-09-18T01:23:53.193Z,99.90
2018-09-18T01:26:21.474Z,99.90
2018-09-18T01:28:50.327Z,99.90
2018-09-18T01:31:19.322Z,99.90
2018-09-18T01:33:47.590Z,99.90
2018-09-18T01:36:15.841Z,99.90
2018-09-18T01:38:44.714Z,99.90
2018-09-18T01:41:12.967Z,99.90
2018-09-18T01:43:41.710Z,99.90
2018-09-18T01:46:09.939Z,99.90
2018-09-18T01:48:38.489Z,99.90
2018-09-18T01:53:40.990Z,99.90
2018-09-18T01:56:09.598Z,99.90
2018-09-18T01:58:37.878Z,99.90
2018-09-18T02:01:06.223Z,99.90
2018-09-18T02:06:07.776Z,99.90
2018-09-18T02:08:36.022Z,99.90
2018-09-18T02:11:04.294Z,99.90
2018-09-18T02:13:32.578Z,99.90
2018-09-18T02:16:01.862Z,99.90
2018-09-18T02:18:30.118Z,99.90
2018-09-18T02:20:58.361Z,99.90
2018-09-18T02:23:26.637Z,99.90
2018-09-18T02:25:54.906Z,99.90
2018-09-18T02:28:23.216Z,99.90
2018-09-18T02:30:51.922Z,99.90
2018-09-18T02:33:20.644Z,99.90
2018-09-18T02:35:48.902Z,99.90
2018-09-18T02:38:17.961Z,99.90
2018-09-18T02:40:46.971Z,99.90
2018-09-18T02:43:15.209Z,99.90
2018-09-18T02:45:43.463Z,99.90
2018-09-18T02:48:12.418Z,99.90
2018-09-18T02:50:41.310Z,99.90
2018-09-18T02:53:10.108Z,99.90
2018-09-18T02:55:38.760Z,99.90
2018-09-18T02:58:07.046Z,99.90
2018-09-18T03:00:35.301Z,99.90
2018-09-18T03:03:03.866Z,99.90
2018-09-18T03:05:32.623Z,99.90
2018-09-18T03:08:00.885Z,99.90
2018-09-18T03:10:29.152Z,99.90
2018-09-18T03:12:57.475Z,99.90
2018-09-18T03:15:25.731Z,99.90
2018-09-18T03:17:54.069Z,99.90
2018-09-18T03:20:22.534Z,99.90
2018-09-18T03:22:50.778Z,99.90
2018-09-18T03:25:19.032Z,99.90
2018-09-18T03:27:47.344Z,99.90
2018-09-18T03:30:16.266Z,99.90
2018-09-18T03:32:44.749Z,99.90
2018-09-18T03:35:12.991Z,99.90
2018-09-18T03:37:41.286Z,99.90
2018-09-18T03:40:09.849Z,99.90
2018-09-18T03:42:38.433Z,99.90
2018-09-18T03:45:06.681Z,99.90
2018-09-18T03:47:35.326Z,99.90
2018-09-18T03:50:03.838Z,99.90
2018-09-18T03:52:32.670Z,99.90
2018-09-18T03:55:00.963Z,99.90
2018-09-18T03:57:29.197Z,99.90
2018-09-18T03:59:57.479Z,99.90
2018-09-18T04:02:28.901Z,99.90
2018-09-18T04:04:57.673Z,99.90
2018-09-18T04:07:25.955Z,99.90
2018-09-18T04:09:54.221Z,99.90
2018-09-18T04:12:22.500Z,99.90
2018-09-18T04:14:50.770Z,99.90
2018-09-18T04:17:19.330Z,99.90
2018-09-18T04:19:47.865Z,99.90
2018-09-18T04:22:16.113Z,99.90
2018-09-18T04:24:44.358Z,99.90
2018-09-18T04:27:12.641Z,99.90
2018-09-18T04:29:41.089Z,99.90
2018-09-18T04:32:09.362Z,99.90
2018-09-18T04:34:37.605Z,99.90
2018-09-18T04:37:06.178Z,99.90
2018-09-18T04:39:34.809Z,99.90
2018-09-18T04:42:03.037Z,99.90
2018-09-18T04:44:31.357Z,99.90
2018-09-18T04:47:00.237Z,99.90
2018-09-18T04:49:28.898Z,99.90
2018-09-18T04:51:57.624Z,99.90
2018-09-18T04:54:26.333Z,99.90
2018-09-18T04:56:54.578Z,99.90
2018-09-18T04:59:22.928Z,99.90
2018-09-18T05:01:51.475Z,99.90
2018-09-18T05:04:20.170Z,99.90
2018-09-18T05:06:48.901Z,99.90
2018-09-18T05:09:17.242Z,99.90
2018-09-18T05:11:45.432Z,99.90
2018-09-18T05:14:14.486Z,99.90
2018-09-18T05:16:42.747Z,99.90
2018-09-18T05:19:11.037Z,99.90
2018-09-18T05:21:39.349Z,99.90
2018-09-18T05:24:07.988Z,99.90
2018-09-18T05:26:36.242Z,99.90
2018-09-18T05:29:04.836Z,99.90
2018-09-18T05:31:33.108Z,99.90
2018-09-18T05:34:01.445Z,99.90
2018-09-18T05:36:29.717Z,99.90
2018-09-18T05:38:58.706Z,99.90
2018-09-18T05:41:26.949Z,99.90
2018-09-18T05:43:55.233Z,99.90
2018-09-18T05:46:26.413Z,99.90
2018-09-18T05:48:54.666Z,99.90
2018-09-18T05:51:23.683Z,99.90
2018-09-18T05:53:52.581Z,99.90
2018-09-18T05:56:20.830Z,99.90
2018-09-18T05:58:49.105Z,99.90
2018-09-18T06:01:17.386Z,99.90
2018-09-18T06:03:46.295Z,99.90
2018-09-18T06:06:20.009Z,99.90
2018-09-18T06:08:48.331Z,99.90
2018-09-18T06:11:16.666Z,99.90
2018-09-18T06:16:13.009Z,99.90
2018-09-18T06:18:41.551Z,99.90
2018-09-18T06:21:10.319Z,99.90
2018-09-18T06:23:38.570Z,99.90
2018-09-18T06:26:07.179Z,99.90
2018-09-18T06:28:39.695Z,99.90
2018-09-18T06:31:07.967Z,99.90
2018-09-18T06:33:36.548Z,99.90
2018-09-18T06:36:04.847Z,99.90
2018-09-18T06:38:33.830Z,99.90
2018-09-18T06:41:02.546Z,99.90
2018-09-18T06:43:30.838Z,99.90
2018-09-18T06:45:59.097Z,99.90
2018-09-18T06:48:27.619Z,99.90
2018-09-18T06:50:55.966Z,99.90
2018-09-18T06:53:29.213Z,99.90
2018-09-18T06:55:57.497Z,99.90
2018-09-18T06:58:25.978Z,99.90
2018-09-18T07:00:58.609Z,99.90
2018-09-18T07:03:27.478Z,99.90
2018-09-18T07:05:56.162Z,99.90
2018-09-18T07:08:24.477Z,99.90
2018-09-18T07:10:53.167Z,99.90
2018-09-18T07:13:22.014Z,99.90
2018-09-18T07:15:50.290Z,99.90
2018-09-18T07:18:18.574Z,99.90
2018-09-18T07:20:47.373Z,99.90
2018-09-18T07:23:15.638Z,99.90
2018-09-18T07:25:43.886Z,99.90
2018-09-18T07:28:12.773Z,99.90
2018-09-18T07:30:41.238Z,99.90
2018-09-18T07:33:09.482Z,99.90
2018-09-18T07:35:37.706Z,99.90
2018-09-18T07:38:19.473Z,99.90
2018-09-18T07:40:48.082Z,99.90
2018-09-18T07:43:16.385Z,99.90
2018-09-18T07:45:49.406Z,99.90
2018-09-18T07:48:18.003Z,99.90
2018-09-18T07:50:46.264Z,99.90
2018-09-18T07:53:15.031Z,99.90
2018-09-18T07:55:43.285Z,99.90
2018-09-18T07:58:11.535Z,99.90
2018-09-18T08:00:40.194Z,99.90
2018-09-18T08:03:09.282Z,98.40
2018-09-18T08:05:44.143Z,98.10
2018-09-18T08:10:36.888Z,97.70
2018-09-18T08:13:05.163Z,96.30
2018-09-18T08:15:33.452Z,96.40
2018-09-18T08:18:01.856Z,96.90
2018-09-18T08:20:30.539Z,96.80
2018-09-18T08:22:58.798Z,95.00
2018-09-18T08:25:27.126Z,95.70
2018-09-18T08:27:55.371Z,96.60
2018-09-18T08:30:23.870Z,95.40
2018-09-18T08:32:52.177Z,94.60
2018-09-18T08:35:20.409Z,94.90
2018-09-18T08:37:48.699Z,93.50
2018-09-18T08:40:17.730Z,96.10
2018-09-18T08:42:46.535Z,95.00
2018-09-18T08:45:14.832Z,94.40
2018-09-18T08:47:43.589Z,94.20
2018-09-18T08:50:11.862Z,92.90
2018-09-18T08:52:40.712Z,91.10
2018-09-18T08:55:08.975Z,91.80
2018-09-18T08:57:37.234Z,90.70
2018-09-18T09:00:06.294Z,87.40
2018-09-18T09:02:34.960Z,88.10
2018-09-18T09:05:03.642Z,85.70
2018-09-18T09:07:34.603Z,86.20
2018-09-18T09:10:02.818Z,90.80
2018-09-18T09:12:31.083Z,88.40
2018-09-18T09:14:59.422Z,90.50
2018-09-18T09:17:27.667Z,87.40
2018-09-18T09:19:56.028Z,86.30
2018-09-18T09:22:24.820Z,85.70
2018-09-18T09:24:53.040Z,83.20
2018-09-18T09:27:21.324Z,78.00
2018-09-18T09:29:49.922Z,80.30
2018-09-18T09:32:18.791Z,77.30
2018-09-18T09:34:47.301Z,73.00
2018-09-18T09:37:15.645Z,72.60
2018-09-18T09:39:44.101Z,73.60
2018-09-18T09:42:12.405Z,72.50
2018-09-18T09:44:40.677Z,72.80
2018-09-18T09:47:09.244Z,71.30
2018-09-18T09:49:37.547Z,75.20
2018-09-18T09:52:06.323Z,69.70
2018-09-18T09:54:35.028Z,69.10
2018-09-18T09:57:03.766Z,68.90
2018-09-18T09:59:32.072Z,70.90
2018-09-18T10:02:06.685Z,68.70
2018-09-18T10:04:35.604Z,67.90
2018-09-18T10:07:04.823Z,65.10
2018-09-18T10:09:33.105Z,66.30
2018-09-18T10:12:01.396Z,65.70
2018-09-18T10:14:29.771Z,66.80
2018-09-18T10:16:58.040Z,64.00
2018-09-18T10:19:26.391Z,61.80
2018-09-18T10:21:54.867Z,60.00
2018-09-18T10:24:23.166Z,61.40
2018-09-18T10:26:51.494Z,59.60
2018-09-18T10:29:20.121Z,60.10
2018-09-18T10:31:48.410Z,61.30
2018-09-18T10:34:16.662Z,59.40
2018-09-18T10:36:45.307Z,60.50
2018-09-18T10:41:45.979Z,60.20
2018-09-18T10:44:14.365Z,57.40
2018-09-18T10:46:43.079Z,57.70
2018-09-18T10:49:11.712Z,58.90
2018-09-18T10:51:40.171Z,58.30
2018-09-18T10:54:08.665Z,58.70
2018-09-18T10:56:36.926Z,61.10
2018-09-18T10:59:05.838Z,64.10
2018-09-18T11:01:34.573Z,61.30
2018-09-18T11:04:03.425Z,62.10
2018-09-18T11:06:31.744Z,62.40
2018-09-18T11:09:00.011Z,62.40
2018-09-18T11:11:28.319Z,66.20
2018-09-18T11:13:56.582Z,66.80
2018-09-18T11:16:24.933Z,66.10
2018-09-18T11:18:53.362Z,66.80
2018-09-18T11:21:22.164Z,68.60
2018-09-18T11:23:50.681Z,67.30
2018-09-18T11:26:18.941Z,69.80
2018-09-18T11:28:47.857Z,72.10
2018-09-18T11:31:16.143Z,72.10
2018-09-18T11:33:44.414Z,74.10
2018-09-18T11:36:12.786Z,78.60
2018-09-18T11:38:44.274Z,76.50
2018-09-18T11:41:13.680Z,75.70
2018-09-18T11:43:43.058Z,76.10
2018-09-18T11:46:12.061Z,76.10
2018-09-18T11:48:41.436Z,76.80
2018-09-18T11:51:17.340Z,76.80
2018-09-18T11:53:46.500Z,76.90
2018-09-18T11:56:15.073Z,77.90
2018-09-18T11:58:43.571Z,79.20
2018-09-18T12:01:12.579Z,79.90
2018-09-18T12:03:41.726Z,80.70
2018-09-18T12:06:10.416Z,79.30
2018-09-18T12:08:38.979Z,81.30
2018-09-18T12:11:07.484Z,84.70
2018-09-18T12:13:35.721Z,79.50
2018-09-18T12:16:04.021Z,80.30
2018-09-18T12:18:32.630Z,80.00
2018-09-18T12:21:01.457Z,81.70
2018-09-18T12:23:29.709Z,84.20
2018-09-18T12:25:57.981Z,80.70
2018-09-18T12:28:26.579Z,80.40
2018-09-18T12:30:54.986Z,79.90
2018-09-18T12:33:23.579Z,82.60
2018-09-18T12:35:51.930Z,82.30
2018-09-18T12:38:20.517Z,78.00
2018-09-18T12:40:49.434Z,78.30
2018-09-18T12:43:18.109Z,79.40
2018-09-18T12:45:46.366Z,78.80
2018-09-18T12:48:14.844Z,78.70
2018-09-18T12:50:43.439Z,78.00
2018-09-18T12:53:11.850Z,80.80
2018-09-18T12:55:40.160Z,78.40
2018-09-18T12:58:09.011Z,66.50
2018-09-18T13:00:37.214Z,68.80
2018-09-18T13:03:05.747Z,70.20
2018-09-18T13:05:34.022Z,62.30
2018-09-18T13:08:02.328Z,63.20
2018-09-18T13:10:30.566Z,59.70
2018-09-18T13:12:58.856Z,54.10
2018-09-18T13:15:27.179Z,56.30
2018-09-18T13:17:55.501Z,50.30
2018-09-18T13:20:23.790Z,52.40
2018-09-18T13:22:52.054Z,49.60
2018-09-18T13:25:20.377Z,50.50
2018-09-18T13:27:49.448Z,42.30
2018-09-18T13:30:18.075Z,45.90
2018-09-18T13:32:46.745Z,42.90
2018-09-18T13:35:14.891Z,44.00
2018-09-18T13:37:43.217Z,43.80
2018-09-18T13:40:11.922Z,41.30
2018-09-18T13:42:40.647Z,42.70
2018-09-18T13:45:08.921Z,40.90
2018-09-18T13:47:37.191Z,39.60
2018-09-18T13:50:05.825Z,39.50
2018-09-18T13:52:34.610Z,37.80
2018-09-18T13:55:02.887Z,42.30
2018-09-18T13:57:31.137Z,45.30
2018-09-18T13:59:59.436Z,44.40
2018-09-18T14:02:27.696Z,46.70
2018-09-18T14:04:56.066Z,45.90
2018-09-18T14:07:24.286Z,48.10
2018-09-18T14:09:52.642Z,48.40
2018-09-18T14:12:20.890Z,53.00
2018-09-18T14:14:49.230Z,53.90
2018-09-18T14:17:17.518Z,51.70
2018-09-18T14:19:45.790Z,55.70
2018-09-18T14:22:14.702Z,54.80
2018-09-18T14:24:42.964Z,55.90
2018-09-18T14:27:11.234Z,56.70
2018-09-18T14:29:39.913Z,57.30
2018-09-18T14:32:08.206Z,55.60
2018-09-18T14:34:36.935Z,57.70
2018-09-18T14:37:05.507Z,59.70
2018-09-18T14:39:34.079Z,59.60
2018-09-18T14:42:02.628Z,59.50
2018-09-18T14:44:30.906Z,56.00
2018-09-18T14:46:59.449Z,57.50
2018-09-18T14:49:27.694Z,58.20
2018-09-18T14:51:56.544Z,59.70
2018-09-18T14:54:25.207Z,59.70
2018-09-18T14:56:53.461Z,56.10
2018-09-18T14:59:21.711Z,56.60
2018-09-18T15:01:49.999Z,62.10
2018-09-18T15:04:18.569Z,56.50
2018-09-18T15:06:46.830Z,56.00
2018-09-18T15:09:15.076Z,56.30
2018-09-18T15:11:43.369Z,55.70
2018-09-18T15:14:11.634Z,57.90
2018-09-18T15:16:40.495Z,59.70
2018-09-18T15:19:09.237Z,57.40
2018-09-18T15:21:37.509Z,57.00
2018-09-18T15:24:06.005Z,58.80
2018-09-18T15:26:34.856Z,56.70
2018-09-18T15:29:03.822Z,58.60
2018-09-18T15:31:32.287Z,57.60
2018-09-18T15:34:01.339Z,61.40
2018-09-18T16:12:09.917Z,59.90
2018-09-18T16:14:38.293Z,59.40
2018-09-18T16:17:06.908Z,61.00
2018-09-18T16:19:35.563Z,60.00
2018-09-18T16:22:03.882Z,61.00
2018-09-18T16:24:32.220Z,59.30
2018-09-18T16:27:00.987Z,59.20
2018-09-18T16:29:29.862Z,59.60
2018-09-18T16:31:58.129Z,61.50
2018-09-18T16:34:26.398Z,62.10
2018-09-18T16:36:55.084Z,60.70
2018-09-18T16:39:23.310Z,61.20
2018-09-18T16:41:51.609Z,62.50
2018-09-18T16:44:19.885Z,61.60
2018-09-18T16:46:48.547Z,61.40
2018-09-18T16:49:18.385Z,63.10
2018-09-18T16:51:47.114Z,62.40
2018-09-18T16:54:15.424Z,62.30
2018-09-18T16:56:43.982Z,62.20
2018-09-18T16:59:12.298Z,63.10
2018-09-18T17:01:41.156Z,62.60
2018-09-18T17:04:09.807Z,65.20
2018-09-18T17:06:38.705Z,63.50
2018-09-18T17:09:07.833Z,66.70
2018-09-18T17:11:36.279Z,64.00
2018-09-18T17:14:04.892Z,65.10
2018-09-18T17:16:33.211Z,68.30
2018-09-18T17:19:01.567Z,70.50
2018-09-18T17:21:30.524Z,69.90
2018-09-18T17:23:58.943Z,70.10
2018-09-18T17:26:27.792Z,69.80
2018-09-18T17:28:56.638Z,69.80
2018-09-18T17:31:24.870Z,70.00
2018-09-18T17:33:53.742Z,71.40
2018-09-18T17:36:22.023Z,71.50
2018-09-18T17:38:50.309Z,72.80
2018-09-18T17:41:18.646Z,72.90
2018-09-18T17:43:46.950Z,75.40
2018-09-18T17:46:16.232Z,74.50
2018-09-18T17:48:45.015Z,76.40
2018-09-18T17:51:13.601Z,75.60
2018-09-18T17:53:42.059Z,78.30
2018-09-18T17:56:10.482Z,77.70
2018-09-18T17:58:38.783Z,78.90
2018-09-18T18:03:48.461Z,82.00
2018-09-18T18:06:16.828Z,82.80
2018-09-18T18:08:45.120Z,83.60
2018-09-18T18:11:13.706Z,83.60
2018-09-18T18:13:42.007Z,86.10
2018-09-18T18:16:10.357Z,87.30
2018-09-18T18:18:38.816Z,86.50
2018-09-18T18:21:07.549Z,88.80
2018-09-18T18:23:36.242Z,89.40
2018-09-18T18:26:04.986Z,90.00
2018-09-18T18:28:33.314Z,91.00
2018-09-18T18:31:01.639Z,90.80
2018-09-18T18:33:30.007Z,90.50
2018-09-18T18:35:58.508Z,90.70
2018-09-18T18:38:27.610Z,91.80
2018-09-18T18:40:55.938Z,91.40
2018-09-18T18:43:24.206Z,91.00
2018-09-18T18:45:52.827Z,91.50
2018-09-18T18:48:21.508Z,91.30
2018-09-18T18:50:49.773Z,91.70
2018-09-18T18:53:18.123Z,91.80
2018-09-18T18:55:46.502Z,91.60
2018-09-18T18:58:14.787Z,91.80
2018-09-18T19:00:43.593Z,92.20
2018-09-18T19:03:12.341Z,92.70
2018-09-18T19:05:42.051Z,94.00
2018-09-18T19:08:10.342Z,94.10
2018-09-18T19:10:38.699Z,94.00
2018-09-18T19:13:07.078Z,94.40
2018-09-18T19:15:35.355Z,94.70
2018-09-18T19:18:03.739Z,95.10
2018-09-18T19:20:32.567Z,96.90
2018-09-18T19:23:00.837Z,96.60
2018-09-18T19:25:29.179Z,97.10
2018-09-18T19:27:57.401Z,96.90
2018-09-18T19:30:25.914Z,97.60
2018-09-18T19:32:54.738Z,97.20
2018-09-18T19:35:25.366Z,97.80
2018-09-18T19:37:53.669Z,98.70
2018-09-18T19:40:21.954Z,99.00
2018-09-18T19:42:50.241Z,99.60
2018-09-18T19:45:18.556Z,99.60
2018-09-18T19:47:47.262Z,99.30
2018-09-18T19:50:17.438Z,99.50
2018-09-18T19:52:47.121Z,99.90
2018-09-18T19:55:16.578Z,99.90
2018-09-18T19:57:44.964Z,99.90
2018-09-18T20:00:13.546Z,99.90
2018-09-18T20:02:42.735Z,99.90
2018-09-18T20:05:12.104Z,99.90
2018-09-18T20:07:40.827Z,99.90
2018-09-18T20:10:09.210Z,99.90
2018-09-18T20:12:37.540Z,99.90
2018-09-18T20:15:05.920Z,99.90
2018-09-18T20:17:34.250Z,99.90
2018-09-18T20:20:03.026Z,99.90
2018-09-18T20:22:31.926Z,99.90
2018-09-18T20:25:00.454Z,99.90
2018-09-18T20:27:29.402Z,99.90
2018-09-18T20:29:57.727Z,99.90
2018-09-18T20:32:26.256Z,99.90
2018-09-18T20:34:54.688Z,99.90
2018-09-18T20:37:22.997Z,99.90
2018-09-18T20:39:51.318Z,99.90
2018-09-18T20:42:19.625Z,99.90
2018-09-18T20:44:48.151Z,99.90
2018-09-18T20:47:17.020Z,99.90
2018-09-18T20:49:45.879Z,99.90
2018-09-18T20:52:14.434Z,99.90
2018-09-18T20:54:42.835Z,99.90
2018-09-18T20:57:11.177Z,99.90
2018-09-18T20:59:39.685Z,99.90
2018-09-18T21:02:15.579Z,99.90
2018-09-18T21:04:44.273Z,99.90
2018-09-18T21:07:12.710Z,99.90
2018-09-18T21:09:41.239Z,99.90
2018-09-18T21:12:09.913Z,99.90
2018-09-18T21:14:38.303Z,99.90
2018-09-18T21:17:07.001Z,99.90
2018-09-18T21:19:35.570Z,99.90
2018-09-18T21:22:04.215Z,99.90
2018-09-18T21:24:32.504Z,99.90
2018-09-18T21:27:00.927Z,99.90
2018-09-18T21:29:29.372Z,99.90
2018-09-18T21:31:57.916Z,99.90
2018-09-18T21:34:26.308Z,99.90
2018-09-18T21:36:54.612Z,99.90
2018-09-18T21:39:22.941Z,99.90
2018-09-18T21:41:51.238Z,99.90
2018-09-18T21:44:19.564Z,99.90
2018-09-18T21:46:47.915Z,99.90
2018-09-18T21:49:16.513Z,99.90
2018-09-18T21:51:45.210Z,99.90
2018-09-18T21:54:13.512Z,99.90
2018-09-18T21:56:41.811Z,99.90
2018-09-18T21:59:10.149Z,99.90
2018-09-18T22:01:39.102Z,99.90
2018-09-18T22:04:07.982Z,99.90
2018-09-18T22:06:36.291Z,99.90
2018-09-18T22:09:04.831Z,99.90
2018-09-18T22:11:33.151Z,99.90
2018-09-18T22:14:01.487Z,99.90
2018-09-18T22:16:30.153Z,99.90
2018-09-18T22:18:58.389Z,99.90
2018-09-18T22:21:26.840Z,99.90
2018-09-18T22:23:55.119Z,99.90
2018-09-18T22:26:23.418Z,99.90
2018-09-18T22:28:51.902Z,99.90
2018-09-18T22:31:20.197Z,99.90
2018-09-18T22:33:48.610Z,99.90
2018-09-18T22:36:17.118Z,99.90
2018-09-18T22:38:45.478Z,99.90
2018-09-18T22:41:13.753Z,99.90
2018-09-18T22:43:42.217Z,99.90
2018-09-18T22:46:10.793Z,99.90
2018-09-18T22:48:39.341Z,99.90
2018-09-18T22:51:07.648Z,99.90
2018-09-18T22:53:36.311Z,99.90
2018-09-18T22:56:04.623Z,99.90
2018-09-18T22:58:32.853Z,99.90
2018-09-18T23:01:01.293Z,99.90
2018-09-18T23:03:31.220Z,99.90
2018-09-18T23:05:59.520Z,99.90
2018-09-18T23:08:27.792Z,99.90
2018-09-18T23:10:56.130Z,99.90
2018-09-18T23:13:24.412Z,99.90
2018-09-18T23:16:01.735Z,99.90
2018-09-18T23:18:30.044Z,99.90
2018-09-18T23:20:58.871Z,99.90
2018-09-18T23:23:27.194Z,99.90
2018-09-18T23:25:55.489Z,99.90
2018-09-18T23:28:23.942Z,99.90
2018-09-18T23:30:52.226Z,99.90
2018-09-18T23:33:20.682Z,99.90
2018-09-18T23:35:49.540Z,99.90
2018-09-18T23:38:17.837Z,99.90
2018-09-18T23:40:46.861Z,99.90
2018-09-18T23:43:21.995Z,99.90
2018-09-18T23:45:50.269Z,99.90
2018-09-18T23:48:19.234Z,99.90
2018-09-18T23:50:47.508Z,99.90
2018-09-18T23:53:15.829Z,99.90
2018-09-18T23:58:21.644Z,99.90
